Orfordville, Wisconsin
Current Conditions -  °F | °C
As of 6:45 AM on Thursday 23 Oct 2014 (Local Time) from KJVL Reporting Station
Clear Clear  
Wind Chill: 31°   Ceiling: Unl
Heat Index: 36°   Visibility: 10mi
Dew Point: 34°   Wind: 6mph
Humidity: 93%   Direction: 150°SSE
Pressure: 30.18"   Gusts: NA
Location:  42.63°N, 89.25°W
Report Text: KJVL 231145Z 15005KT 10SM CLR 02/01 A3018
Loading
Personal Weather Stations






























Interactive Weather Map
Tropical Storm Tracking
New forecast layout! Learn more

10-Day Weather Forecast

Advertisements
Track Severe Weather on mobile